Карточка аэропорта UNNT

Внимание!
Информация на этой странице в стадии наполнения.
Если вы не увидели какой-то информации, или заметили неточность - пожалуйста сообщите нам!
Спасибо!
Команда RU-STAFF
Название аэропортаТолмачево
Название аэропорта (англ.)Tolmachevo
Превышение367 ft. (111.9 m.)
Координаты55°0.77999999999989', 82°38.178'
Высота перехода6000ft
Эшелон переходаQNH>=1013hPa:FL70; QNH<1013hPa:FL80; QNH<977hPa:FL90
Коды ответчика5201-5227
Зона ОрВДНовосибирск РПИ (UNNT)
Данные METARUNNT 230600Z 21006MPS 9999 VCTS BKN040CB 23/07 Q1013 R25/090070 R16/////// NOSIG RMK QFE750/1000
Проноз погоды (TAF)UNNT 230500Z 2306/2406 22006G12MPS 8000 BKN040CB TX21/2307Z TN11/2322Z TEMPO 2306/2315 27011G20MPS -TSRA BKN016CB BECMG 2315/2316 35003G08MPS TEMPO 2318/2403 23005G10MPS -SHRA BKN005 BKN011CB BECMG 2403/2404 26005G10MPS
NOTAMshow/hide NOTAM
AWOS   TABLE

Информация о ВПП

ВПП Длина ВПП (м.) Покрытие Курс ВПП Частота ILS
073597Асфальтобетон72110.1
253597Асфальтобетон252108.5
163602Цементобетон161109.7
343602Цементобетон341111.1

Диспетчерские позиции

Позывной Наименование органа УВД Частота
UNNT_DEL Новосибирск-Деливери135.4
UNNT_TWRНовосибирск-Вышка118.5
UNNT_R_APPНовосибирск-Круг122.0
UNNT_APPНовосибирск-Подход127.5
UNNT_GNDНовосибирск-Руление121.7



Спутниковое изображение